Terminal Aerodrome Forecast
Issued by NWS Charleston, WV

Current Version | Previous Version | Graphics & Text | Print | Product List | Glossary On
Versions: 1 2 3 4 5 6 7 8 9 10 11 12 13 14 15 16 17 18 19 20 21 22 23 24 25
841
FTUS41 KRLX 201739
TAFPKB
TAF
KPKB 201739Z 2018/2118 22007KT P6SM SCT015 OVC020
     FM201900 22008KT P6SM BKN025
     FM202000 23008KT P6SM BKN035
     FM211000 20003KT 5SM BR BKN050
     FM211300 VRB03KT P6SM BKN100=

USA.gov is the U.S. government's official web portal to all federal, state and local government web resources and services.